createdAt,value
2018-12-04T00:02:07.345Z,12.90
2018-12-04T00:04:34.794Z,13.20
2018-12-04T00:07:02.233Z,13.00
2018-12-04T00:09:29.741Z,12.90
2018-12-04T00:11:57.185Z,13.10
2018-12-04T00:14:24.690Z,12.90
2018-12-04T00:16:52.267Z,12.90
2018-12-04T00:19:19.696Z,12.70
2018-12-04T00:21:48.735Z,12.80
2018-12-04T00:24:16.266Z,12.60
2018-12-04T00:26:43.694Z,12.60
2018-12-04T00:29:11.130Z,12.40
2018-12-04T00:31:38.647Z,12.50
2018-12-04T00:34:06.091Z,12.40
2018-12-04T00:36:33.654Z,12.30
2018-12-04T00:39:01.814Z,12.50
2018-12-04T00:41:29.431Z,12.70
2018-12-04T00:43:56.961Z,12.70
2018-12-04T00:46:24.419Z,12.60
2018-12-04T00:48:51.941Z,12.70
2018-12-04T00:51:19.435Z,12.50
2018-12-04T00:53:46.882Z,12.00
2018-12-04T00:56:14.456Z,12.00
2018-12-04T00:58:41.908Z,11.90
2018-12-04T01:01:09.700Z,11.60
2018-12-04T01:03:37.174Z,11.60
2018-12-04T01:06:04.682Z,11.30
2018-12-04T01:08:32.206Z,11.70
2018-12-04T01:10:59.672Z,11.80
2018-12-04T01:13:27.263Z,11.70
2018-12-04T01:15:54.733Z,12.00
2018-12-04T01:18:22.287Z,11.80
2018-12-04T01:20:49.734Z,11.70
2018-12-04T01:23:17.314Z,11.20
2018-12-04T01:25:45.482Z,11.30
2018-12-04T01:28:12.950Z,11.80
2018-12-04T01:30:40.386Z,11.90
2018-12-04T01:33:07.924Z,11.60
2018-12-04T01:35:35.403Z,11.40
2018-12-04T01:38:02.869Z,11.50
2018-12-04T01:40:30.335Z,11.80
2018-12-04T01:42:57.758Z,11.40
2018-12-04T01:45:25.194Z,10.90
2018-12-04T01:47:52.703Z,11.20
2018-12-04T01:50:20.250Z,11.10
2018-12-04T01:52:47.676Z,11.10
2018-12-04T01:55:15.126Z,11.20
2018-12-04T01:57:42.566Z,11.70
2018-12-04T02:00:10.040Z,11.70
2018-12-04T02:02:37.537Z,11.90
2018-12-04T02:05:05.116Z,11.90
2018-12-04T02:07:32.579Z,11.80
2018-12-04T02:10:00.123Z,11.80
2018-12-04T02:12:27.558Z,11.40
2018-12-04T02:14:55.035Z,11.50
2018-12-04T02:17:22.490Z,11.70
2018-12-04T02:19:49.918Z,11.90
2018-12-04T02:22:17.388Z,12.00
2018-12-04T02:24:44.861Z,12.20
2018-12-04T02:27:12.333Z,11.80
2018-12-04T02:29:39.757Z,11.80
2018-12-04T02:32:07.252Z,11.40
2018-12-04T02:34:34.675Z,11.20
2018-12-04T02:37:02.333Z,11.20
2018-12-04T02:39:29.758Z,11.20
2018-12-04T02:41:57.299Z,11.40
2018-12-04T02:44:24.831Z,11.40
2018-12-04T02:46:52.289Z,11.40
2018-12-04T02:49:19.716Z,11.30
2018-12-04T02:51:47.176Z,11.20
2018-12-04T02:54:14.666Z,11.40
2018-12-04T02:56:42.123Z,11.40
2018-12-04T02:59:09.991Z,11.40
2018-12-04T03:01:37.463Z,11.70
2018-12-04T03:04:04.880Z,11.60
2018-12-04T03:06:32.338Z,11.90
2018-12-04T03:08:59.809Z,12.00
2018-12-04T03:11:27.237Z,12.10
2018-12-04T03:13:54.751Z,12.20
2018-12-04T03:16:22.190Z,12.50
2018-12-04T03:18:49.632Z,12.30
2018-12-04T03:21:17.070Z,12.40
2018-12-04T03:23:44.572Z,12.40
2018-12-04T03:26:12.020Z,12.30
2018-12-04T03:28:39.600Z,12.40
2018-12-04T03:31:07.151Z,12.30
2018-12-04T03:33:36.760Z,11.90
2018-12-04T03:36:04.745Z,12.10
2018-12-04T03:38:32.277Z,12.10
2018-12-04T03:40:59.988Z,12.20
2018-12-04T03:43:27.434Z,11.50
2018-12-04T03:45:55.095Z,11.80
2018-12-04T03:48:22.940Z,11.80
2018-12-04T03:50:50.498Z,11.90
2018-12-04T03:53:18.012Z,12.00
2018-12-04T03:55:45.511Z,11.90
2018-12-04T03:58:13.080Z,11.80
2018-12-04T04:00:40.643Z,11.80
2018-12-04T04:03:08.086Z,11.90
2018-12-04T04:05:35.599Z,12.10
2018-12-04T04:08:03.112Z,12.00
2018-12-04T04:10:30.539Z,11.80
2018-12-04T04:12:58.107Z,11.90
2018-12-04T04:15:25.678Z,11.90
2018-12-04T04:17:53.142Z,11.60
2018-12-04T04:20:20.697Z,11.80
2018-12-04T04:22:48.133Z,12.10
2018-12-04T04:25:15.561Z,12.30
2018-12-04T04:27:43.002Z,11.90
2018-12-04T04:30:10.555Z,11.80
2018-12-04T04:32:38.116Z,11.60
2018-12-04T04:35:05.650Z,11.50
2018-12-04T04:37:33.111Z,11.40
2018-12-04T04:40:00.567Z,11.30
2018-12-04T04:42:28.010Z,11.40
2018-12-04T04:44:55.484Z,10.90
2018-12-04T04:47:23.053Z,11.10
2018-12-04T04:49:50.526Z,10.70
2018-12-04T04:52:18.063Z,10.90
2018-12-04T04:54:45.500Z,10.90
2018-12-04T04:57:12.991Z,11.20
2018-12-04T04:59:40.546Z,11.70
2018-12-04T05:02:07.983Z,11.70
2018-12-04T05:04:35.415Z,11.50
2018-12-04T05:07:02.917Z,11.60
2018-12-04T05:09:30.341Z,11.50
2018-12-04T05:11:57.807Z,11.50
2018-12-04T05:14:25.283Z,11.70
2018-12-04T05:16:52.843Z,11.80
2018-12-04T05:19:20.324Z,11.60
2018-12-04T05:21:47.810Z,11.30
2018-12-04T05:24:15.315Z,11.30
2018-12-04T05:26:42.795Z,11.40
2018-12-04T05:29:10.323Z,11.20
2018-12-04T05:31:37.783Z,11.20
2018-12-04T05:34:05.284Z,11.30
2018-12-04T05:36:32.826Z,11.50
2018-12-04T05:39:00.387Z,11.30
2018-12-04T05:41:27.827Z,11.00
2018-12-04T05:43:55.285Z,11.20
2018-12-04T05:46:22.713Z,11.50
2018-12-04T05:48:50.138Z,11.60
2018-12-04T05:51:17.602Z,11.50
2018-12-04T05:53:45.122Z,11.30
2018-12-04T05:56:12.626Z,11.50
2018-12-04T05:58:40.145Z,11.40
2018-12-04T06:01:07.680Z,11.20
2018-12-04T06:03:35.117Z,11.30
2018-12-04T06:06:02.533Z,11.50
2018-12-04T06:08:29.974Z,11.60
2018-12-04T06:10:57.423Z,11.60
2018-12-04T06:13:24.887Z,11.80
2018-12-04T06:15:52.347Z,11.90
2018-12-04T06:18:19.767Z,11.80
2018-12-04T06:20:47.200Z,11.80
2018-12-04T06:23:14.721Z,11.20
2018-12-04T06:25:42.174Z,11.10
2018-12-04T06:28:10.459Z,11.30
2018-12-04T06:30:38.002Z,11.50
2018-12-04T06:33:05.475Z,11.40
2018-12-04T06:35:32.937Z,11.50
2018-12-04T06:38:00.374Z,11.20
2018-12-04T06:40:27.816Z,11.10
2018-12-04T06:42:55.349Z,11.30
2018-12-04T06:45:22.850Z,11.30
2018-12-04T06:47:50.310Z,10.80
2018-12-04T06:50:17.746Z,11.10
2018-12-04T06:52:45.270Z,11.00
2018-12-04T06:55:12.683Z,11.00
2018-12-04T06:57:40.156Z,10.90
2018-12-04T07:00:07.709Z,11.10
2018-12-04T07:02:35.281Z,11.20
2018-12-04T07:05:02.762Z,11.30
2018-12-04T07:07:30.193Z,11.40
2018-12-04T07:09:57.641Z,11.40
2018-12-04T07:12:25.154Z,11.40
2018-12-04T07:14:52.654Z,11.50
2018-12-04T07:17:20.106Z,11.40
2018-12-04T07:19:47.561Z,11.40
2018-12-04T07:22:15.001Z,11.40
2018-12-04T07:24:42.478Z,10.90
2018-12-04T07:27:10.464Z,10.70
2018-12-04T07:29:38.096Z,10.80
2018-12-04T07:32:05.570Z,10.90
2018-12-04T07:34:33.214Z,10.80
2018-12-04T07:37:00.676Z,11.10
2018-12-04T07:39:28.155Z,10.90
2018-12-04T07:41:55.607Z,11.20
2018-12-04T07:44:23.118Z,11.00
2018-12-04T07:46:50.632Z,11.00
2018-12-04T07:49:18.185Z,10.80
2018-12-04T07:51:45.684Z,10.60
2018-12-04T07:54:13.204Z,10.80
2018-12-04T07:56:40.627Z,11.00
2018-12-04T07:59:08.168Z,11.20
2018-12-04T08:01:35.630Z,11.10
2018-12-04T08:04:03.139Z,11.30
2018-12-04T08:06:30.594Z,11.20
2018-12-04T08:08:58.056Z,11.20
2018-12-04T08:11:25.509Z,11.40
2018-12-04T08:13:52.972Z,11.60
2018-12-04T08:16:20.524Z,11.50
2018-12-04T08:18:48.021Z,11.60
2018-12-04T08:21:15.780Z,11.80
2018-12-04T08:23:43.322Z,12.00
2018-12-04T08:26:10.730Z,11.50
2018-12-04T08:28:38.157Z,11.60
2018-12-04T08:31:05.591Z,11.40
2018-12-04T08:33:33.057Z,11.30
2018-12-04T08:36:00.490Z,11.70
2018-12-04T08:38:27.954Z,12.10
2018-12-04T08:40:55.410Z,12.30
2018-12-04T08:43:22.875Z,12.20
2018-12-04T08:45:50.327Z,12.20
2018-12-04T08:48:17.786Z,12.10
2018-12-04T08:50:45.248Z,12.00
2018-12-04T08:53:12.682Z,11.70
2018-12-04T08:55:40.176Z,11.90
2018-12-04T08:58:07.742Z,12.10
2018-12-04T09:00:35.456Z,11.20
2018-12-04T09:03:02.982Z,11.10
2018-12-04T09:05:30.508Z,11.70
2018-12-04T09:07:57.994Z,12.40
2018-12-04T09:10:25.539Z,13.20
2018-12-04T09:12:53.082Z,13.70
2018-12-04T09:15:20.620Z,13.60
2018-12-04T09:17:48.087Z,13.90
2018-12-04T09:20:15.533Z,13.90
2018-12-04T09:22:43.110Z,13.80
2018-12-04T09:25:10.684Z,14.20
2018-12-04T09:27:38.186Z,13.70
2018-12-04T09:30:08.458Z,13.10
2018-12-04T09:32:36.022Z,13.00
2018-12-04T09:35:03.912Z,13.00
2018-12-04T09:37:31.348Z,13.10
2018-12-04T09:39:58.833Z,13.10
2018-12-04T09:42:26.362Z,13.10
2018-12-04T09:44:53.947Z,13.20
2018-12-04T09:47:21.435Z,13.00
2018-12-04T09:49:48.872Z,13.20
2018-12-04T09:52:17.214Z,13.20
2018-12-04T09:54:44.684Z,13.80
2018-12-04T09:57:12.127Z,13.80
2018-12-04T09:59:39.699Z,13.60
2018-12-04T10:02:07.243Z,13.50
2018-12-04T10:04:34.675Z,14.10
2018-12-04T10:07:02.117Z,15.40
2018-12-04T10:09:29.633Z,15.80
2018-12-04T10:11:57.070Z,15.80
2018-12-04T10:14:24.534Z,14.90
2018-12-04T10:16:51.995Z,13.90
2018-12-04T10:19:19.503Z,13.60
2018-12-04T10:21:46.930Z,13.30
2018-12-04T10:24:14.390Z,13.50
2018-12-04T10:26:41.846Z,13.90
2018-12-04T10:29:09.299Z,15.30
2018-12-04T10:31:36.720Z,16.10
2018-12-04T10:34:04.215Z,16.40
2018-12-04T10:36:31.761Z,16.90
2018-12-04T10:38:59.196Z,15.70
2018-12-04T10:41:26.617Z,14.90
2018-12-04T10:43:54.135Z,14.30
2018-12-04T10:46:21.666Z,14.50
2018-12-04T10:48:49.142Z,14.50
2018-12-04T10:51:16.574Z,14.80
2018-12-04T10:53:44.023Z,14.80
2018-12-04T10:56:11.453Z,14.80
2018-12-04T10:58:38.912Z,15.00
2018-12-04T11:04:08.210Z,15.80
2018-12-04T11:06:35.638Z,17.90
2018-12-04T11:09:04.999Z,19.80
2018-12-04T11:11:32.510Z,20.90
2018-12-04T11:13:59.969Z,21.20
2018-12-04T11:16:27.423Z,20.30
2018-12-04T11:18:54.854Z,20.40
2018-12-04T11:26:23.192Z,18.30
2018-12-04T11:28:50.661Z,16.90
2018-12-04T11:31:18.215Z,17.10
2018-12-04T11:33:45.685Z,17.70
2018-12-04T11:36:13.113Z,18.30
2018-12-04T11:38:40.578Z,16.50
2018-12-04T11:41:08.049Z,16.60
2018-12-04T11:43:35.502Z,17.30
2018-12-04T11:46:03.083Z,17.70
2018-12-04T11:51:00.261Z,15.60
2018-12-04T11:53:27.488Z,15.60
2018-12-04T11:55:54.913Z,15.10
2018-12-04T11:58:22.535Z,15.90
2018-12-04T12:00:50.043Z,16.60
2018-12-04T12:03:17.470Z,18.00
2018-12-04T12:05:44.999Z,18.60
2018-12-04T12:08:12.532Z,18.30
2018-12-04T12:10:39.990Z,18.90
2018-12-04T12:13:07.439Z,19.50
2018-12-04T12:15:34.929Z,18.70
2018-12-04T12:18:02.449Z,19.10
2018-12-04T12:20:29.878Z,20.10
2018-12-04T12:22:57.372Z,20.30
2018-12-04T12:25:24.850Z,21.00
2018-12-04T12:27:52.317Z,21.10
2018-12-04T12:30:20.210Z,21.40
2018-12-04T12:32:47.679Z,21.50
2018-12-04T12:35:15.187Z,22.10
2018-12-04T12:37:42.625Z,21.80
2018-12-04T12:40:11.064Z,21.90
2018-12-04T12:42:38.590Z,21.50
2018-12-04T12:45:06.971Z,22.20
2018-12-04T12:47:34.395Z,22.80
2018-12-04T12:50:01.861Z,22.90
2018-12-04T12:52:29.393Z,22.90
2018-12-04T12:54:56.828Z,23.40
2018-12-04T12:57:24.285Z,23.00
2018-12-04T12:59:51.867Z,22.20
2018-12-04T13:02:19.467Z,21.70
2018-12-04T13:04:46.936Z,20.10
2018-12-04T13:07:14.454Z,19.60
2018-12-04T13:09:41.956Z,19.10
2018-12-04T13:12:09.531Z,19.20
2018-12-04T13:14:37.281Z,19.90
2018-12-04T13:17:04.858Z,20.30
2018-12-04T13:19:32.377Z,20.40
2018-12-04T13:21:59.806Z,20.10
2018-12-04T13:24:27.254Z,19.60
2018-12-04T13:26:54.771Z,18.60
2018-12-04T13:29:22.245Z,17.60
2018-12-04T13:31:49.811Z,17.00
2018-12-04T13:34:17.313Z,16.80
2018-12-04T13:36:44.775Z,16.60
2018-12-04T13:39:12.392Z,16.30
2018-12-04T13:41:39.911Z,16.20
2018-12-04T13:44:07.386Z,16.10
2018-12-04T13:46:34.941Z,16.00
2018-12-04T13:49:02.537Z,15.20
2018-12-04T13:51:30.061Z,15.00
2018-12-04T13:53:57.643Z,14.70
2018-12-04T13:56:25.257Z,14.80
2018-12-04T13:58:52.867Z,14.90
2018-12-04T14:01:20.429Z,15.80
2018-12-04T14:03:47.963Z,16.20
2018-12-04T14:06:15.573Z,16.00
2018-12-04T14:08:43.109Z,15.20
2018-12-04T14:11:11.492Z,14.60
2018-12-04T14:13:38.912Z,14.70
2018-12-04T14:16:06.454Z,14.90
2018-12-04T14:18:34.049Z,15.20
2018-12-04T14:21:01.542Z,14.90
2018-12-04T14:23:29.051Z,14.10
2018-12-04T14:25:56.567Z,14.20
2018-12-04T14:28:24.138Z,14.10
2018-12-04T14:30:51.741Z,14.20
2018-12-04T14:33:19.230Z,14.40
2018-12-04T14:35:46.694Z,14.40
2018-12-04T14:38:14.147Z,14.60
2018-12-04T14:40:41.662Z,14.70
2018-12-04T14:43:09.189Z,14.80
2018-12-04T14:45:36.616Z,14.90
2018-12-04T14:48:04.074Z,14.90
2018-12-04T14:50:31.612Z,15.00
2018-12-04T14:52:59.060Z,15.10
2018-12-04T14:55:26.597Z,15.00
2018-12-04T14:57:54.139Z,14.90
2018-12-04T15:00:21.659Z,14.80
2018-12-04T15:02:49.154Z,14.60
2018-12-04T15:05:16.666Z,14.50
2018-12-04T15:07:44.230Z,14.40
2018-12-04T15:10:11.997Z,14.30
2018-12-04T15:12:39.509Z,14.00
2018-12-04T15:15:07.243Z,14.00
2018-12-04T15:17:34.742Z,13.90
2018-12-04T15:20:02.284Z,13.90
2018-12-04T15:22:29.761Z,13.80
2018-12-04T15:24:57.277Z,13.80
2018-12-04T15:27:24.839Z,13.60
2018-12-04T15:29:52.318Z,13.60
2018-12-04T15:32:19.930Z,13.40
2018-12-04T15:34:47.362Z,13.30
2018-12-04T15:37:14.912Z,13.20
2018-12-04T15:39:42.456Z,13.10
2018-12-04T15:42:09.989Z,13.00
2018-12-04T15:44:37.540Z,12.90
2018-12-04T15:47:05.014Z,12.80
2018-12-04T15:49:32.636Z,12.70
2018-12-04T15:52:00.203Z,12.60
2018-12-04T15:54:27.776Z,12.50
2018-12-04T15:56:55.323Z,12.40
2018-12-04T15:59:22.798Z,12.30
2018-12-04T16:01:50.268Z,12.30
2018-12-04T16:04:17.693Z,12.20
2018-12-04T16:06:45.126Z,12.20
2018-12-04T16:09:12.631Z,12.10
2018-12-04T16:11:40.066Z,12.20
2018-12-04T16:14:07.486Z,12.10
2018-12-04T16:16:34.923Z,12.10
2018-12-04T16:19:02.422Z,12.00
2018-12-04T16:21:30.003Z,12.00
2018-12-04T16:23:57.459Z,12.00
2018-12-04T16:26:24.890Z,12.00
2018-12-04T16:28:52.328Z,11.90
2018-12-04T16:31:19.933Z,11.80
2018-12-04T16:33:47.370Z,11.70
2018-12-04T16:36:14.805Z,11.60
2018-12-04T16:38:42.308Z,11.60
2018-12-04T16:41:09.840Z,11.60
2018-12-04T16:43:37.422Z,11.60
2018-12-04T16:46:04.887Z,11.60
2018-12-04T16:48:32.443Z,11.60
2018-12-04T16:50:59.887Z,11.60
2018-12-04T16:53:27.358Z,11.60
2018-12-04T16:55:54.839Z,11.60
2018-12-04T16:58:22.273Z,11.50
2018-12-04T17:00:49.749Z,11.40
2018-12-04T17:03:17.182Z,11.30
2018-12-04T17:05:44.598Z,11.20
2018-12-04T17:08:12.051Z,11.20
2018-12-04T17:10:39.570Z,11.00
2018-12-04T17:13:07.027Z,10.90
2018-12-04T17:15:34.550Z,10.70
2018-12-04T17:18:02.112Z,10.70
2018-12-04T17:20:29.530Z,10.80
2018-12-04T17:22:56.966Z,11.00
2018-12-04T17:25:24.391Z,11.20
2018-12-04T17:27:51.846Z,11.30
2018-12-04T17:30:19.590Z,11.30
2018-12-04T17:32:47.175Z,11.30
2018-12-04T17:35:14.618Z,11.20
2018-12-04T17:37:42.095Z,11.20
2018-12-04T17:40:09.547Z,11.10
2018-12-04T17:42:36.976Z,11.00
2018-12-04T17:45:04.992Z,11.10
2018-12-04T17:47:32.548Z,10.90
2018-12-04T17:50:00.014Z,10.90
2018-12-04T17:52:27.594Z,10.90
2018-12-04T17:54:55.039Z,10.90
2018-12-04T17:57:22.496Z,10.90
2018-12-04T17:59:49.923Z,10.90
2018-12-04T18:02:17.383Z,11.40
2018-12-04T18:04:44.819Z,10.70
2018-12-04T18:07:12.331Z,10.60
2018-12-04T18:09:39.789Z,10.50
2018-12-04T18:12:07.339Z,10.70
2018-12-04T18:14:34.832Z,10.70
2018-12-04T18:17:02.330Z,10.70
2018-12-04T18:19:29.808Z,10.70
2018-12-04T18:21:57.256Z,10.70
2018-12-04T18:24:24.718Z,10.60
2018-12-04T18:26:52.141Z,10.50
2018-12-04T18:29:19.637Z,10.40
2018-12-04T18:31:47.090Z,10.30
2018-12-04T18:34:14.553Z,10.20
2018-12-04T18:36:42.011Z,10.20
2018-12-04T18:39:09.618Z,10.10
2018-12-04T18:41:37.159Z,10.10
2018-12-04T18:44:04.647Z,10.00
2018-12-04T18:48:59.510Z,9.90
2018-12-04T18:51:26.957Z,9.90
2018-12-04T18:53:54.391Z,9.90
2018-12-04T18:58:49.271Z,9.90
2018-12-04T19:01:16.767Z,10.00
2018-12-04T19:03:44.194Z,9.90
2018-12-04T19:06:12.209Z,9.90
2018-12-04T19:13:40.232Z,9.90
2018-12-04T19:16:07.706Z,9.80
2018-12-04T19:21:02.682Z,9.50
2018-12-04T19:23:30.194Z,9.50
2018-12-04T19:25:57.639Z,9.50
2018-12-04T19:28:25.061Z,9.50
2018-12-04T19:31:02.647Z,9.60
2018-12-04T19:33:28.041Z,9.70
2018-12-04T19:35:55.480Z,9.60
2018-12-04T19:38:23.005Z,9.60
2018-12-04T19:40:50.458Z,9.60
2018-12-04T19:43:17.914Z,9.50
2018-12-04T19:45:45.371Z,9.60
2018-12-04T19:48:12.817Z,9.60
2018-12-04T19:50:40.318Z,9.50
2018-12-04T19:53:07.747Z,9.40
2018-12-04T19:55:35.164Z,9.30
2018-12-04T19:58:02.582Z,9.30
2018-12-04T20:00:30.071Z,9.20
2018-12-04T20:02:57.491Z,9.20
2018-12-04T20:05:24.898Z,9.20
2018-12-04T20:07:52.345Z,9.10
2018-12-04T20:10:19.760Z,9.00
2018-12-04T20:12:47.182Z,8.90
2018-12-04T20:15:14.650Z,8.90
2018-12-04T20:17:42.073Z,8.90
2018-12-04T20:20:09.579Z,8.90
2018-12-04T20:22:37.038Z,8.90
2018-12-04T20:25:04.931Z,8.80
2018-12-04T20:27:32.458Z,8.80
2018-12-04T20:29:59.891Z,8.90
2018-12-04T20:32:27.309Z,8.90
2018-12-04T20:34:54.806Z,8.90
2018-12-04T20:37:22.298Z,8.90
2018-12-04T20:39:49.849Z,8.80
2018-12-04T20:42:23.281Z,8.80
2018-12-04T20:44:46.696Z,8.80
2018-12-04T20:47:14.193Z,8.70
2018-12-04T20:49:41.691Z,8.70
2018-12-04T20:52:09.166Z,8.70
2018-12-04T20:54:36.599Z,8.60
2018-12-04T20:57:04.080Z,8.60
2018-12-04T20:59:31.668Z,8.50
2018-12-04T21:01:59.205Z,8.50
2018-12-04T21:04:26.677Z,8.50
2018-12-04T21:06:54.140Z,8.50
2018-12-04T21:09:21.782Z,8.50
2018-12-04T21:11:49.253Z,8.40
2018-12-04T21:14:16.728Z,8.40
2018-12-04T21:16:44.179Z,8.40
2018-12-04T21:19:12.550Z,8.30
2018-12-04T21:21:40.124Z,8.30
2018-12-04T21:24:07.565Z,8.30
2018-12-04T21:26:37.011Z,8.30
2018-12-04T21:29:10.378Z,8.30
2018-12-04T21:31:43.526Z,8.30
2018-12-04T21:34:16.759Z,8.30
2018-12-04T21:36:49.725Z,8.30
2018-12-04T21:39:19.066Z,8.20
2018-12-04T21:41:52.319Z,8.20
2018-12-04T21:44:25.386Z,8.20
2018-12-04T21:46:58.598Z,8.20
2018-12-04T21:49:26.098Z,8.20
2018-12-04T21:51:53.630Z,8.10
2018-12-04T21:54:21.077Z,8.10
2018-12-04T21:56:48.556Z,8.20
2018-12-04T21:59:16.022Z,8.20
2018-12-04T22:01:43.493Z,8.20
2018-12-04T22:04:10.908Z,8.10
2018-12-04T22:06:38.338Z,8.30
2018-12-04T22:09:06.409Z,8.40
2018-12-04T22:11:33.834Z,8.50
2018-12-04T22:14:01.252Z,8.60
2018-12-04T22:16:28.844Z,8.60
2018-12-04T22:18:56.290Z,8.60
2018-12-04T22:21:23.746Z,8.60
2018-12-04T22:23:51.214Z,8.60
2018-12-04T22:26:18.676Z,8.60
2018-12-04T22:28:46.217Z,8.40
2018-12-04T22:31:13.795Z,8.40
2018-12-04T22:33:41.337Z,7.80
2018-12-04T22:36:08.896Z,7.40
2018-12-04T22:38:36.368Z,7.40
2018-12-04T22:41:03.834Z,7.30
2018-12-04T22:43:31.276Z,7.30
2018-12-04T22:45:58.732Z,7.20
2018-12-04T22:48:26.190Z,7.50
2018-12-04T22:50:53.641Z,7.80
2018-12-04T22:53:21.108Z,8.10
2018-12-04T22:55:48.663Z,8.20
2018-12-04T22:58:16.120Z,7.90
2018-12-04T23:00:43.801Z,8.10
2018-12-04T23:03:11.501Z,8.10
2018-12-04T23:05:38.974Z,8.30
2018-12-04T23:08:06.537Z,7.50
2018-12-04T23:10:33.986Z,7.20
2018-12-04T23:13:01.493Z,6.70
2018-12-04T23:15:28.918Z,6.90
2018-12-04T23:17:56.378Z,6.80
2018-12-04T23:20:23.794Z,6.90
2018-12-04T23:22:51.314Z,7.10
2018-12-04T23:25:18.729Z,7.10
2018-12-04T23:27:46.240Z,7.10
2018-12-04T23:30:13.727Z,7.50
2018-12-04T23:32:41.148Z,7.60
2018-12-04T23:35:08.715Z,7.50
2018-12-04T23:37:36.142Z,7.60
2018-12-04T23:40:04.327Z,7.60
2018-12-04T23:42:31.796Z,7.80
2018-12-04T23:44:59.209Z,7.90
2018-12-04T23:47:26.917Z,8.10
2018-12-04T23:49:54.399Z,8.10
2018-12-04T23:52:21.826Z,8.10
2018-12-04T23:54:49.279Z,8.20
2018-12-04T23:57:16.686Z,8.40
2018-12-04T23:59:44.111Z,8.40
